sensor_id;sensor_type;location;lat;lon;timestamp;pressure;altitude;pressure_sealevel;temperature;humidity
66762;BME280;53672;48.176;16.338;2023-09-30T00:02:00;99644.09;;;15.19;63.42
66762;BME280;53672;48.176;16.338;2023-09-30T00:07:00;99645.38;;;15.17;64.60
66762;BME280;53672;48.176;16.338;2023-09-30T00:12:01;99650.03;;;15.16;63.73
66762;BME280;53672;48.176;16.338;2023-09-30T00:17:03;99648.34;;;15.15;64.22
66762;BME280;53672;48.176;16.338;2023-09-30T00:22:03;99650.44;;;15.13;64.36
66762;BME280;53672;48.176;16.338;2023-09-30T00:27:04;99642.78;;;15.09;64.67
66762;BME280;53672;48.176;16.338;2023-09-30T00:32:06;99647.03;;;14.98;64.58
66762;BME280;53672;48.176;16.338;2023-09-30T00:37:06;99642.78;;;14.96;64.20
66762;BME280;53672;48.176;16.338;2023-09-30T00:42:07;99627.47;;;14.93;64.71
66762;BME280;53672;48.176;16.338;2023-09-30T00:47:08;99635.34;;;14.90;64.89
66762;BME280;53672;48.176;16.338;2023-09-30T00:52:10;99631.31;;;14.86;65.42
66762;BME280;53672;48.176;16.338;2023-09-30T00:57:11;99636.22;;;14.90;65.13
66762;BME280;53672;48.176;16.338;2023-09-30T01:02:13;99637.66;;;14.86;65.03
66762;BME280;53672;48.176;16.338;2023-09-30T01:07:14;99635.28;;;14.64;67.17
66762;BME280;53672;48.176;16.338;2023-09-30T01:12:14;99638.06;;;14.70;66.11
66762;BME280;53672;48.176;16.338;2023-09-30T01:17:16;99637.03;;;14.71;65.66
66762;BME280;53672;48.176;16.338;2023-09-30T01:22:18;99642.56;;;14.78;66.58
66762;BME280;53672;48.176;16.338;2023-09-30T01:27:19;99646.19;;;14.78;65.93
66762;BME280;53672;48.176;16.338;2023-09-30T01:32:19;99642.38;;;14.86;67.61
66762;BME280;53672;48.176;16.338;2023-09-30T01:37:21;99651.72;;;14.91;66.62
66762;BME280;53672;48.176;16.338;2023-09-30T01:42:21;99650.03;;;14.97;66.54
66762;BME280;53672;48.176;16.338;2023-09-30T01:47:22;99650.44;;;15.00;65.86
66762;BME280;53672;48.176;16.338;2023-09-30T01:52:24;99654.28;;;14.99;66.82
66762;BME280;53672;48.176;16.338;2023-09-30T01:57:24;99659.38;;;15.09;66.07
66762;BME280;53672;48.176;16.338;2023-09-30T02:02:25;99661.09;;;15.16;66.71
66762;BME280;53672;48.176;16.338;2023-09-30T02:07:26;99656.19;;;15.18;65.93
66762;BME280;53672;48.176;16.338;2023-09-30T02:12:27;99665.34;;;15.25;65.88
66762;BME280;53672;48.176;16.338;2023-09-30T02:17:28;99673.47;;;15.34;67.35
66762;BME280;53672;48.176;16.338;2023-09-30T02:22:29;99676.00;;;15.48;67.12
66762;BME280;53672;48.176;16.338;2023-09-30T02:27:30;99674.09;;;15.62;67.72
66762;BME280;53672;48.176;16.338;2023-09-30T02:32:30;99675.53;;;15.97;67.27
66762;BME280;53672;48.176;16.338;2023-09-30T02:37:33;99678.59;;;16.33;66.33
66762;BME280;53672;48.176;16.338;2023-09-30T02:42:33;99685.09;;;16.72;65.12
66762;BME280;53672;48.176;16.338;2023-09-30T02:47:34;99680.56;;;17.08;63.65
66762;BME280;53672;48.176;16.338;2023-09-30T02:52:36;99674.78;;;17.41;62.85
66762;BME280;53672;48.176;16.338;2023-09-30T02:57:37;99685.44;;;17.69;62.18
66762;BME280;53672;48.176;16.338;2023-09-30T03:02:38;99678.38;;;17.91;61.82
66762;BME280;53672;48.176;16.338;2023-09-30T03:07:39;99678.88;;;18.06;61.71
66762;BME280;53672;48.176;16.338;2023-09-30T03:12:40;99676.19;;;18.18;61.86
66762;BME280;53672;48.176;16.338;2023-09-30T03:17:40;99685.31;;;18.25;61.68
66762;BME280;53672;48.176;16.338;2023-09-30T03:22:42;99688.09;;;18.25;61.54
66762;BME280;53672;48.176;16.338;2023-09-30T03:27:43;99687.59;;;18.28;62.08
66762;BME280;53672;48.176;16.338;2023-09-30T03:32:44;99689.88;;;18.37;62.25
66762;BME280;53672;48.176;16.338;2023-09-30T03:37:46;99689.78;;;18.44;62.53
66762;BME280;53672;48.176;16.338;2023-09-30T03:42:49;99690.47;;;18.57;62.54
66762;BME280;53672;48.176;16.338;2023-09-30T03:47:49;99695.66;;;18.72;63.19
66762;BME280;53672;48.176;16.338;2023-09-30T03:52:51;99702.13;;;18.84;63.21
66762;BME280;53672;48.176;16.338;2023-09-30T03:57:51;99714.63;;;18.93;64.49
66762;BME280;53672;48.176;16.338;2023-09-30T04:02:52;99728.13;;;18.90;67.68
66762;BME280;53672;48.176;16.338;2023-09-30T04:07:54;99737.06;;;18.80;69.25
66762;BME280;53672;48.176;16.338;2023-09-30T04:12:54;99742.56;;;18.68;69.19
66762;BME280;53672;48.176;16.338;2023-09-30T04:17:55;99747.47;;;18.66;69.16
66762;BME280;53672;48.176;16.338;2023-09-30T04:22:57;99752.66;;;18.63;69.06
66762;BME280;53672;48.176;16.338;2023-09-30T04:27:57;99756.50;;;18.62;69.12
66762;BME280;53672;48.176;16.338;2023-09-30T04:32:58;99771.69;;;18.66;68.58
66762;BME280;53672;48.176;16.338;2023-09-30T04:38:00;99773.97;;;18.69;68.59
66762;BME280;53672;48.176;16.338;2023-09-30T04:43:00;99778.94;;;18.67;68.76
66762;BME280;53672;48.176;16.338;2023-09-30T04:48:01;99789.13;;;18.73;68.54
66762;BME280;53672;48.176;16.338;2023-09-30T04:53:03;99799.63;;;18.71;68.91
66762;BME280;53672;48.176;16.338;2023-09-30T04:58:03;99804.88;;;18.61;69.41
66762;BME280;53672;48.176;16.338;2023-09-30T05:03:04;99810.44;;;18.61;69.36
66762;BME280;53672;48.176;16.338;2023-09-30T05:08:06;99823.50;;;18.60;69.26
66762;BME280;53672;48.176;16.338;2023-09-30T05:13:06;99833.63;;;18.55;69.34
66762;BME280;53672;48.176;16.338;2023-09-30T05:18:07;99844.44;;;18.63;68.81
66762;BME280;53672;48.176;16.338;2023-09-30T05:23:08;99860.91;;;18.83;67.30
66762;BME280;53672;48.176;16.338;2023-09-30T05:28:09;99857.75;;;18.79;67.33
66762;BME280;53672;48.176;16.338;2023-09-30T05:33:09;99859.91;;;18.77;67.29
66762;BME280;53672;48.176;16.338;2023-09-30T05:38:11;99859.97;;;18.70;67.01
66762;BME280;53672;48.176;16.338;2023-09-30T05:43:12;99865.53;;;18.70;66.77
66762;BME280;53672;48.176;16.338;2023-09-30T05:48:12;99868.94;;;18.73;66.26
66762;BME280;53672;48.176;16.338;2023-09-30T05:53:14;99880.44;;;18.76;65.69
66762;BME280;53672;48.176;16.338;2023-09-30T05:58:15;99883.03;;;18.78;65.39
66762;BME280;53672;48.176;16.338;2023-09-30T06:03:15;99892.19;;;18.78;65.21
66762;BME280;53672;48.176;16.338;2023-09-30T06:08:17;99894.06;;;18.84;64.37
66762;BME280;53672;48.176;16.338;2023-09-30T06:13:17;99905.03;;;18.97;63.59
66762;BME280;53672;48.176;16.338;2023-09-30T06:18:18;99894.78;;;19.16;62.79
66762;BME280;53672;48.176;16.338;2023-09-30T06:23:20;99904.63;;;19.36;61.55
66762;BME280;53672;48.176;16.338;2023-09-30T06:28:20;99907.38;;;19.55;61.10
66762;BME280;53672;48.176;16.338;2023-09-30T06:33:21;99914.41;;;19.57;60.93
66762;BME280;53672;48.176;16.338;2023-09-30T06:38:23;99914.78;;;19.61;60.73
66762;BME280;53672;48.176;16.338;2023-09-30T06:43:23;99916.81;;;19.72;60.40
66762;BME280;53672;48.176;16.338;2023-09-30T06:48:24;99915.19;;;19.64;60.36
66762;BME280;53672;48.176;16.338;2023-09-30T06:53:26;99912.19;;;19.77;59.56
66762;BME280;53672;48.176;16.338;2023-09-30T06:58:26;99915.84;;;19.78;59.47
66762;BME280;53672;48.176;16.338;2023-09-30T07:03:27;99925.88;;;19.79;59.43
66762;BME280;53672;48.176;16.338;2023-09-30T07:08:29;99917.97;;;19.94;59.22
66762;BME280;53672;48.176;16.338;2023-09-30T07:13:29;99921.19;;;20.09;58.60
66762;BME280;53672;48.176;16.338;2023-09-30T07:18:30;99918.25;;;20.34;57.91
66762;BME280;53672;48.176;16.338;2023-09-30T07:23:32;99920.59;;;20.83;56.43
66762;BME280;53672;48.176;16.338;2023-09-30T07:28:32;99916.94;;;21.29;54.50
66762;BME280;53672;48.176;16.338;2023-09-30T07:33:33;99923.75;;;21.84;52.94
66762;BME280;53672;48.176;16.338;2023-09-30T07:38:35;99926.16;;;22.09;51.76
66762;BME280;53672;48.176;16.338;2023-09-30T07:43:35;99922.19;;;22.05;51.56
66762;BME280;53672;48.176;16.338;2023-09-30T07:48:36;99923.22;;;22.15;51.82
66762;BME280;53672;48.176;16.338;2023-09-30T07:53:38;99927.38;;;22.58;50.25
66762;BME280;53672;48.176;16.338;2023-09-30T07:58:38;99935.16;;;23.22;48.25
66762;BME280;53672;48.176;16.338;2023-09-30T08:03:39;99938.56;;;23.68;47.09
66762;BME280;53672;48.176;16.338;2023-09-30T08:08:40;99942.31;;;24.21;45.76
66762;BME280;53672;48.176;16.338;2023-09-30T08:13:41;99943.53;;;24.31;44.89
66762;BME280;53672;48.176;16.338;2023-09-30T08:18:41;99931.09;;;23.95;45.30
66762;BME280;53672;48.176;16.338;2023-09-30T08:23:43;99942.38;;;23.57;46.69
66762;BME280;53672;48.176;16.338;2023-09-30T08:28:44;99952.16;;;23.76;46.04
66762;BME280;53672;48.176;16.338;2023-09-30T08:33:44;99954.28;;;23.69;45.58
66762;BME280;53672;48.176;16.338;2023-09-30T08:38:48;99961.81;;;24.33;43.66
66762;BME280;53672;48.176;16.338;2023-09-30T08:43:48;99964.69;;;24.97;42.42
66762;BME280;53672;48.176;16.338;2023-09-30T08:48:49;99964.28;;;25.15;41.60
66762;BME280;53672;48.176;16.338;2023-09-30T08:53:52;99964.59;;;24.86;42.41
66762;BME280;53672;48.176;16.338;2023-09-30T08:58:54;99953.59;;;24.80;42.21
66762;BME280;53672;48.176;16.338;2023-09-30T09:03:57;99939.13;;;24.98;41.71
66762;BME280;53672;48.176;16.338;2023-09-30T09:09:14;99947.00;;;24.69;43.23
66762;BME280;53672;48.176;16.338;2023-09-30T09:14:14;99945.72;;;24.82;42.52
66762;BME280;53672;48.176;16.338;2023-09-30T09:19:15;99942.06;;;26.27;39.72
66762;BME280;53672;48.176;16.338;2023-09-30T09:24:26;99953.03;;;26.23;38.85
66762;BME280;53672;48.176;16.338;2023-09-30T09:29:27;99954.88;;;25.88;40.23
66762;BME280;53672;48.176;16.338;2023-09-30T09:34:27;99956.91;;;25.97;39.65
66762;BME280;53672;48.176;16.338;2023-09-30T09:39:30;99969.81;;;25.93;40.34
66762;BME280;53672;48.176;16.338;2023-09-30T09:44:30;99962.97;;;25.27;41.26
66762;BME280;53672;48.176;16.338;2023-09-30T09:49:32;99976.34;;;24.52;43.56
66762;BME280;53672;48.176;16.338;2023-09-30T09:54:34;99978.06;;;24.04;45.29
66762;BME280;53672;48.176;16.338;2023-09-30T09:59:36;99968.13;;;23.75;45.58
66762;BME280;53672;48.176;16.338;2023-09-30T10:04:37;99968.84;;;24.57;44.34
66762;BME280;53672;48.176;16.338;2023-09-30T10:09:41;99960.00;;;24.75;43.31
66762;BME280;53672;48.176;16.338;2023-09-30T10:14:44;99963.66;;;24.76;43.55
66762;BME280;53672;48.176;16.338;2023-09-30T10:20:03;99958.19;;;24.59;43.90
66762;BME280;53672;48.176;16.338;2023-09-30T10:25:34;99963.84;;;25.33;42.32
66762;BME280;53672;48.176;16.338;2023-09-30T10:30:35;99957.66;;;25.31;42.22
66762;BME280;53672;48.176;16.338;2023-09-30T10:35:43;99954.81;;;24.94;42.88
66762;BME280;53672;48.176;16.338;2023-09-30T10:40:45;99960.31;;;24.79;42.96
66762;BME280;53672;48.176;16.338;2023-09-30T10:45:46;99965.28;;;24.67;43.43
66762;BME280;53672;48.176;16.338;2023-09-30T10:50:50;99960.13;;;24.32;44.37
66762;BME280;53672;48.176;16.338;2023-09-30T10:55:55;99967.75;;;24.37;44.87
66762;BME280;53672;48.176;16.338;2023-09-30T11:00:55;99950.81;;;26.36;40.83
66762;BME280;53672;48.176;16.338;2023-09-30T11:05:56;99941.59;;;28.05;36.78
66762;BME280;53672;48.176;16.338;2023-09-30T11:10:58;99952.00;;;27.30;37.39
66762;BME280;53672;48.176;16.338;2023-09-30T11:16:03;99947.72;;;26.37;39.39
66762;BME280;53672;48.176;16.338;2023-09-30T11:21:07;99949.97;;;25.68;41.21
66762;BME280;53672;48.176;16.338;2023-09-30T11:26:09;99942.03;;;24.76;43.08
66762;BME280;53672;48.176;16.338;2023-09-30T11:31:11;99943.66;;;24.14;43.94
66762;BME280;53672;48.176;16.338;2023-09-30T11:36:12;99946.78;;;23.52;46.43
66762;BME280;53672;48.176;16.338;2023-09-30T11:41:15;99947.97;;;23.57;46.59
66762;BME280;53672;48.176;16.338;2023-09-30T11:46:16;99945.38;;;24.73;43.45
66762;BME280;53672;48.176;16.338;2023-09-30T11:51:16;99934.94;;;25.01;42.88
66762;BME280;53672;48.176;16.338;2023-09-30T11:56:18;99942.38;;;25.17;42.46
66762;BME280;53672;48.176;16.338;2023-09-30T12:01:18;99937.59;;;24.80;43.02
66762;BME280;53672;48.176;16.338;2023-09-30T12:06:19;99935.09;;;24.52;43.84
66762;BME280;53672;48.176;16.338;2023-09-30T12:11:21;99940.16;;;24.02;45.24
66762;BME280;53672;48.176;16.338;2023-09-30T12:16:21;99944.09;;;24.06;44.99
66762;BME280;53672;48.176;16.338;2023-09-30T12:21:22;99935.69;;;24.06;44.94
66762;BME280;53672;48.176;16.338;2023-09-30T12:26:23;99932.72;;;23.91;45.73
66762;BME280;53672;48.176;16.338;2023-09-30T12:31:24;99931.03;;;23.90;45.25
66762;BME280;53672;48.176;16.338;2023-09-30T12:36:24;99937.03;;;23.77;45.84
66762;BME280;53672;48.176;16.338;2023-09-30T12:41:26;99934.84;;;23.62;46.03
66762;BME280;53672;48.176;16.338;2023-09-30T12:46:27;99940.91;;;23.32;46.63
66762;BME280;53672;48.176;16.338;2023-09-30T12:51:27;99939.25;;;23.15;46.74
66762;BME280;53672;48.176;16.338;2023-09-30T12:56:30;99944.16;;;22.91;47.05
66762;BME280;53672;48.176;16.338;2023-09-30T13:01:30;99941.66;;;23.06;46.26
66762;BME280;53672;48.176;16.338;2023-09-30T13:06:30;99926.97;;;23.37;45.48
66762;BME280;53672;48.176;16.338;2023-09-30T13:11:32;99943.69;;;23.71;45.04
66762;BME280;53672;48.176;16.338;2023-09-30T13:16:33;99927.84;;;24.08;44.16
66762;BME280;53672;48.176;16.338;2023-09-30T13:21:33;99923.53;;;24.22;43.97
66762;BME280;53672;48.176;16.338;2023-09-30T13:26:35;99923.22;;;24.45;42.77
66762;BME280;53672;48.176;16.338;2023-09-30T13:31:36;99921.16;;;24.67;42.02
66762;BME280;53672;48.176;16.338;2023-09-30T13:36:36;99928.34;;;24.53;42.31
66762;BME280;53672;48.176;16.338;2023-09-30T13:41:38;99924.09;;;24.46;42.28
66762;BME280;53672;48.176;16.338;2023-09-30T13:46:39;99925.69;;;24.15;43.08
66762;BME280;53672;48.176;16.338;2023-09-30T13:51:39;99920.03;;;24.10;43.37
66762;BME280;53672;48.176;16.338;2023-09-30T13:56:41;99921.34;;;24.29;43.25
66762;BME280;53672;48.176;16.338;2023-09-30T14:01:42;99915.78;;;24.34;43.00
66762;BME280;53672;48.176;16.338;2023-09-30T14:06:42;99919.13;;;24.04;43.97
66762;BME280;53672;48.176;16.338;2023-09-30T14:11:44;99924.69;;;23.78;45.30
66762;BME280;53672;48.176;16.338;2023-09-30T14:16:44;99928.00;;;23.31;51.03
66762;BME280;53672;48.176;16.338;2023-09-30T14:21:45;99925.09;;;22.88;52.60
66762;BME280;53672;48.176;16.338;2023-09-30T14:26:47;99919.56;;;22.43;55.38
66762;BME280;53672;48.176;16.338;2023-09-30T14:31:47;99916.09;;;22.25;55.55
66762;BME280;53672;48.176;16.338;2023-09-30T14:36:48;99919.81;;;22.13;55.86
66762;BME280;53672;48.176;16.338;2023-09-30T14:41:50;99918.28;;;22.06;55.85
66762;BME280;53672;48.176;16.338;2023-09-30T14:46:50;99917.94;;;22.02;57.39
66762;BME280;53672;48.176;16.338;2023-09-30T14:51:50;99908.22;;;22.05;57.06
66762;BME280;53672;48.176;16.338;2023-09-30T14:56:52;99905.69;;;22.20;54.61
66762;BME280;53672;48.176;16.338;2023-09-30T15:01:53;99916.00;;;22.19;53.54
66762;BME280;53672;48.176;16.338;2023-09-30T15:06:54;99914.81;;;22.15;54.47
66762;BME280;53672;48.176;16.338;2023-09-30T15:11:56;99919.63;;;22.03;52.99
66762;BME280;53672;48.176;16.338;2023-09-30T15:16:56;99926.38;;;21.91;52.69
66762;BME280;53672;48.176;16.338;2023-09-30T15:21:57;99937.22;;;21.87;51.43
66762;BME280;53672;48.176;16.338;2023-09-30T15:26:58;99937.72;;;21.84;53.03
66762;BME280;53672;48.176;16.338;2023-09-30T15:31:59;99942.00;;;21.75;52.40
66762;BME280;53672;48.176;16.338;2023-09-30T15:36:59;99943.59;;;21.71;50.78
66762;BME280;53672;48.176;16.338;2023-09-30T15:42:01;99945.06;;;21.62;50.85
66762;BME280;53672;48.176;16.338;2023-09-30T15:47:04;99953.34;;;21.57;51.58
66762;BME280;53672;48.176;16.338;2023-09-30T15:52:05;99945.44;;;21.54;50.50
66762;BME280;53672;48.176;16.338;2023-09-30T15:57:07;99944.59;;;21.42;49.36
66762;BME280;53672;48.176;16.338;2023-09-30T16:02:07;99953.13;;;21.35;49.66
66762;BME280;53672;48.176;16.338;2023-09-30T16:07:08;99962.63;;;21.23;50.59
66762;BME280;53672;48.176;16.338;2023-09-30T16:12:10;99959.56;;;21.13;51.17
66762;BME280;53672;48.176;16.338;2023-09-30T16:17:10;99959.31;;;21.03;52.23
66762;BME280;53672;48.176;16.338;2023-09-30T16:22:10;99971.13;;;20.93;52.17
66762;BME280;53672;48.176;16.338;2023-09-30T16:27:12;99982.38;;;20.87;52.27
66762;BME280;53672;48.176;16.338;2023-09-30T16:32:13;99987.09;;;20.74;52.58
66762;BME280;53672;48.176;16.338;2023-09-30T16:37:13;99990.72;;;20.63;52.97
66762;BME280;53672;48.176;16.338;2023-09-30T16:42:15;100001.44;;;20.48;53.21
66762;BME280;53672;48.176;16.338;2023-09-30T16:47:16;100007.25;;;20.35;53.00
66762;BME280;53672;48.176;16.338;2023-09-30T16:52:17;100023.06;;;20.23;53.34
66762;BME280;53672;48.176;16.338;2023-09-30T16:57:19;100019.88;;;20.08;53.82
66762;BME280;53672;48.176;16.338;2023-09-30T17:02:19;100033.22;;;19.99;54.12
66762;BME280;53672;48.176;16.338;2023-09-30T17:07:20;100030.84;;;19.85;54.40
66762;BME280;53672;48.176;16.338;2023-09-30T17:12:22;100027.75;;;19.75;53.95
66762;BME280;53672;48.176;16.338;2023-09-30T17:17:23;100035.25;;;19.56;53.66
66762;BME280;53672;48.176;16.338;2023-09-30T17:22:23;100051.84;;;19.51;53.72
66762;BME280;53672;48.176;16.338;2023-09-30T17:27:25;100049.56;;;19.42;54.00
66762;BME280;53672;48.176;16.338;2023-09-30T17:32:26;100052.81;;;19.38;54.29
66762;BME280;53672;48.176;16.338;2023-09-30T17:37:26;100070.91;;;19.29;54.11
66762;BME280;53672;48.176;16.338;2023-09-30T17:42:28;100063.59;;;19.28;53.99
66762;BME280;53672;48.176;16.338;2023-09-30T17:47:30;100058.91;;;19.29;54.02
66762;BME280;53672;48.176;16.338;2023-09-30T17:52:31;100053.81;;;19.19;54.10
66762;BME280;53672;48.176;16.338;2023-09-30T17:57:33;100053.03;;;19.12;54.19
66762;BME280;53672;48.176;16.338;2023-09-30T18:02:34;100061.22;;;19.07;54.38
66762;BME280;53672;48.176;16.338;2023-09-30T18:07:35;100069.63;;;19.01;54.45
66762;BME280;53672;48.176;16.338;2023-09-30T18:12:37;100077.81;;;18.96;54.34
66762;BME280;53672;48.176;16.338;2023-09-30T18:17:39;100082.75;;;18.94;53.77
66762;BME280;53672;48.176;16.338;2023-09-30T18:22:40;100080.66;;;18.89;53.62
66762;BME280;53672;48.176;16.338;2023-09-30T18:27:42;100087.50;;;18.87;53.82
66762;BME280;53672;48.176;16.338;2023-09-30T18:32:43;100083.44;;;18.83;52.63
66762;BME280;53672;48.176;16.338;2023-09-30T18:37:44;100097.22;;;18.78;52.68
66762;BME280;53672;48.176;16.338;2023-09-30T18:42:46;100093.97;;;18.81;51.69
66762;BME280;53672;48.176;16.338;2023-09-30T18:47:47;100098.72;;;18.73;51.80
66762;BME280;53672;48.176;16.338;2023-09-30T18:52:48;100098.94;;;18.72;51.42
66762;BME280;53672;48.176;16.338;2023-09-30T18:57:51;100106.91;;;18.68;51.85
66762;BME280;53672;48.176;16.338;2023-09-30T19:02:52;100113.28;;;18.69;51.09
66762;BME280;53672;48.176;16.338;2023-09-30T19:07:53;100100.69;;;18.66;50.81
66762;BME280;53672;48.176;16.338;2023-09-30T19:12:56;100103.13;;;18.56;50.40
66762;BME280;53672;48.176;16.338;2023-09-30T19:17:57;100098.00;;;18.53;50.59
66762;BME280;53672;48.176;16.338;2023-09-30T19:22:58;100091.84;;;18.45;50.81
66762;BME280;53672;48.176;16.338;2023-09-30T19:28:01;100095.50;;;18.32;50.99
66762;BME280;53672;48.176;16.338;2023-09-30T19:33:02;100109.25;;;18.21;51.37
66762;BME280;53672;48.176;16.338;2023-09-30T19:38:03;100114.03;;;18.14;51.20
66762;BME280;53672;48.176;16.338;2023-09-30T19:43:06;100115.94;;;18.13;51.17
66762;BME280;53672;48.176;16.338;2023-09-30T19:48:06;100114.88;;;18.08;51.24
66762;BME280;53672;48.176;16.338;2023-09-30T19:53:07;100110.00;;;17.96;51.41
66762;BME280;53672;48.176;16.338;2023-09-30T19:58:10;100111.75;;;17.84;51.97
66762;BME280;53672;48.176;16.338;2023-09-30T20:03:11;100119.25;;;17.77;51.85
66762;BME280;53672;48.176;16.338;2023-09-30T20:08:12;100116.75;;;17.63;52.03
66762;BME280;53672;48.176;16.338;2023-09-30T20:13:13;100118.88;;;17.54;52.86
66762;BME280;53672;48.176;16.338;2023-09-30T20:18:14;100136.81;;;17.45;53.00
66762;BME280;53672;48.176;16.338;2023-09-30T20:23:14;100130.38;;;17.38;53.04
66762;BME280;53672;48.176;16.338;2023-09-30T20:28:16;100130.22;;;17.26;53.38
66762;BME280;53672;48.176;16.338;2023-09-30T20:33:17;100138.31;;;17.15;53.87
66762;BME280;53672;48.176;16.338;2023-09-30T20:38:17;100144.69;;;17.09;54.12
66762;BME280;53672;48.176;16.338;2023-09-30T20:43:19;100146.19;;;16.98;54.22
66762;BME280;53672;48.176;16.338;2023-09-30T20:48:20;100145.97;;;16.87;54.05
66762;BME280;53672;48.176;16.338;2023-09-30T20:53:20;100148.75;;;16.87;53.76
66762;BME280;53672;48.176;16.338;2023-09-30T20:58:22;100157.69;;;16.76;53.92
66762;BME280;53672;48.176;16.338;2023-09-30T21:03:23;100171.09;;;16.66;53.65
66762;BME280;53672;48.176;16.338;2023-09-30T21:08:23;100174.50;;;16.61;53.62
66762;BME280;53672;48.176;16.338;2023-09-30T21:13:25;100176.41;;;16.60;53.05
66762;BME280;53672;48.176;16.338;2023-09-30T21:18:25;100175.75;;;16.58;52.70
66762;BME280;53672;48.176;16.338;2023-09-30T21:23:26;100176.84;;;16.57;52.08
66762;BME280;53672;48.176;16.338;2023-09-30T21:28:28;100183.66;;;16.55;52.04
66762;BME280;53672;48.176;16.338;2023-09-30T21:33:28;100185.28;;;16.49;51.81
66762;BME280;53672;48.176;16.338;2023-09-30T21:38:29;100182.72;;;16.41;52.09
66762;BME280;53672;48.176;16.338;2023-09-30T21:43:30;100186.75;;;16.32;52.40
66762;BME280;53672;48.176;16.338;2023-09-30T21:48:31;100193.78;;;16.35;51.72
66762;BME280;53672;48.176;16.338;2023-09-30T21:53:32;100185.19;;;16.23;53.01
66762;BME280;53672;48.176;16.338;2023-09-30T21:58:34;100192.38;;;16.11;54.21
66762;BME280;53672;48.176;16.338;2023-09-30T22:03:35;100192.53;;;16.03;55.42
66762;BME280;53672;48.176;16.338;2023-09-30T22:08:35;100186.69;;;15.85;55.71
66762;BME280;53672;48.176;16.338;2023-09-30T22:13:37;100192.41;;;15.77;56.76
66762;BME280;53672;48.176;16.338;2023-09-30T22:18:38;100196.38;;;15.68;57.16
66762;BME280;53672;48.176;16.338;2023-09-30T22:23:39;100192.22;;;15.57;57.55
66762;BME280;53672;48.176;16.338;2023-09-30T22:28:40;100199.81;;;15.49;57.03
66762;BME280;53672;48.176;16.338;2023-09-30T22:33:41;100199.97;;;15.41;57.76
66762;BME280;53672;48.176;16.338;2023-09-30T22:38:41;100194.31;;;15.27;57.87
66762;BME280;53672;48.176;16.338;2023-09-30T22:43:43;100194.31;;;15.27;56.16
66762;BME280;53672;48.176;16.338;2023-09-30T22:48:44;100191.31;;;15.22;55.51
66762;BME280;53672;48.176;16.338;2023-09-30T22:53:44;100193.38;;;15.20;54.50
66762;BME280;53672;48.176;16.338;2023-09-30T22:58:46;100195.13;;;15.21;54.17
66762;BME280;53672;48.176;16.338;2023-09-30T23:03:46;100196.38;;;15.19;54.26
66762;BME280;53672;48.176;16.338;2023-09-30T23:08:47;100209.28;;;15.12;54.37
66762;BME280;53672;48.176;16.338;2023-09-30T23:13:49;100202.66;;;15.06;54.73
66762;BME280;53672;48.176;16.338;2023-09-30T23:18:49;100201.97;;;15.04;54.69
66762;BME280;53672;48.176;16.338;2023-09-30T23:23:50;100197.03;;;15.00;54.69
66762;BME280;53672;48.176;16.338;2023-09-30T23:28:52;100201.25;;;14.96;54.74
66762;BME280;53672;48.176;16.338;2023-09-30T23:33:52;100195.28;;;14.92;54.45
66762;BME280;53672;48.176;16.338;2023-09-30T23:38:53;100199.47;;;14.88;54.74
66762;BME280;53672;48.176;16.338;2023-09-30T23:43:54;100193.28;;;14.86;54.55
66762;BME280;53672;48.176;16.338;2023-09-30T23:48:55;100197.28;;;14.84;54.82
66762;BME280;53672;48.176;16.338;2023-09-30T23:53:55;100213.03;;;14.83;54.43
66762;BME280;53672;48.176;16.338;2023-09-30T23:58:57;100210.66;;;14.80;54.71
